Terminal Aerodrome Forecast
Issued by NWS Wilmington, OH

Current Version | Previous Version | Graphics & Text | Print | Product List | Glossary On
Versions: 1 2 3 4 5 6 7 8 9 10 11 12 13 14 15 16 17 18
000
FTUS41 KILN 202340
TAFCMH
TAF
KCMH 202340Z 2100/2124 01009KT P6SM VCSH OVC015
      TEMPO 2100/2103 5SM -SHRA BR OVC008
     FM210300 36005KT 5SM BR OVC007
     FM211100 36009KT 5SM BR OVC015
     FM211400 35009KT P6SM BKN035
     FM211700 33010KT P6SM BKN150=

USA.gov is the U.S. government's official web portal to all federal, state and local government web resources and services.